Time;durP1;ratioP1;P1;durP2;ratioP2;P2;SDS_P1;SDS_P2;PMS_P1;PMS_P2;Temp;Humidity;BMP_temperature;BMP_pressure;BME280_temperature;BME280_humidity;BME280_pressure;Samples;Min_cycle;Max_cycle;Signal;HPM_P1;HPM_P2
2022/11/09 00:03:41;;;;;;;20.38;12.90;;;15.70;80.20;;;;;;21172892;28;20610;-63
2022/11/09 00:13:44;;;;;;;20.73;12.65;;;15.60;80.90;;;;;;21172464;28;20157;-64
2022/11/09 00:23:47;;;;;;;20.43;12.60;;;15.60;81.20;;;;;;21172320;28;20051;-64
2022/11/09 00:33:50;;;;;;;17.88;10.35;;;15.60;80.90;;;;;;21172508;28;20083;-64
2022/11/09 00:43:52;;;;;;;14.97;10.77;;;15.70;80.60;;;;;;21171119;28;20044;-64
2022/11/09 00:53:56;;;;;;;11.00;9.18;;;15.70;81.10;;;;;;21169300;28;20061;-64
2022/11/09 01:03:57;;;;;;;11.20;7.83;;;15.70;80.70;;;;;;21169363;28;20081;-63
2022/11/09 01:13:59;;;;;;;9.82;7.13;;;15.70;80.80;;;;;;21168202;28;20065;-67
2022/11/09 01:24:02;;;;;;;9.05;6.75;;;15.70;80.50;;;;;;21167659;28;20047;-65
2022/11/09 01:34:04;;;;;;;7.40;6.07;;;15.70;80.20;;;;;;21166775;28;20051;-67
2022/11/09 01:44:15;;;;;;;7.68;5.55;;;15.70;80.20;;;;;;21165804;28;20044;-65
2022/11/09 01:54:27;;;;;;;6.40;4.25;;;15.70;79.90;;;;;;21164507;28;20087;-70
2022/11/09 02:04:37;;;;;;;6.00;4.13;;;15.70;79.30;;;;;;21164523;28;20055;-62
2022/11/09 02:14:39;;;;;;;6.07;3.55;;;15.50;79.50;;;;;;21163518;28;20142;-68
2022/11/09 02:24:40;;;;;;;7.03;4.13;;;15.50;79.60;;;;;;21163844;28;20384;-71
2022/11/09 02:34:41;;;;;;;5.50;3.72;;;15.40;79.70;;;;;;21163253;28;20117;-67
2022/11/09 02:44:47;;;;;;;5.78;3.47;;;15.30;79.90;;;;;;21162628;28;20044;-67
2022/11/09 02:54:50;;;;;;;5.55;3.05;;;15.40;79.60;;;;;;21162443;28;20047;-69
2022/11/09 03:04:52;;;;;;;8.90;3.20;;;15.30;80.00;;;;;;21162257;28;20450;-63
2022/11/09 03:15:00;;;;;;;8.98;4.63;;;15.30;79.80;;;;;;21161047;28;20161;-65
2022/11/09 03:25:04;;;;;;;5.72;3.45;;;15.20;80.60;;;;;;21161118;28;20040;-63
2022/11/09 03:35:07;;;;;;;8.93;3.25;;;15.20;80.90;;;;;;21166730;28;20051;-63
2022/11/09 03:45:11;;;;;;;4.97;3.00;;;15.20;80.60;;;;;;21157844;28;20077;-63
2022/11/09 03:55:14;;;;;;;5.80;3.50;;;15.20;80.10;;;;;;21175218;28;20454;-63
2022/11/09 04:05:16;;;;;;;7.43;3.67;;;15.20;80.10;;;;;;21173594;28;20557;-65
2022/11/09 04:15:19;;;;;;;6.15;2.60;;;15.20;80.00;;;;;;21172885;28;20048;-64
2022/11/09 04:25:21;;;;;;;6.93;3.42;;;15.20;79.50;;;;;;21171523;28;20054;-64
2022/11/09 04:35:24;;;;;;;7.07;3.47;;;15.20;79.80;;;;;;21170815;28;20473;-64
2022/11/09 04:45:26;;;;;;;5.63;3.38;;;15.10;80.40;;;;;;21169533;28;20387;-63
2022/11/09 04:55:27;;;;;;;7.15;3.17;;;15.10;80.30;;;;;;21169241;28;20044;-63
2022/11/09 05:05:29;;;;;;;6.47;3.15;;;15.10;80.20;;;;;;21168182;28;20048;-64
2022/11/09 05:15:31;;;;;;;7.25;3.38;;;15.10;80.50;;;;;;21167727;28;20051;-63
2022/11/09 05:25:32;;;;;;;7.32;3.75;;;15.20;79.90;;;;;;21166989;28;20196;-64
2022/11/09 05:35:34;;;;;;;7.95;3.63;;;15.20;79.70;;;;;;21166125;28;20507;-63
2022/11/09 05:45:35;;;;;;;6.82;3.53;;;15.10;80.20;;;;;;21165826;28;20055;-64
2022/11/09 05:55:38;;;;;;;8.88;3.78;;;15.10;80.20;;;;;;21163337;28;20087;-65
2022/11/09 06:05:40;;;;;;;8.15;3.03;;;15.00;80.10;;;;;;21163255;28;20046;-63
2022/11/09 06:15:56;;;;;;;8.48;3.50;;;15.00;80.10;;;;;;21163478;28;20055;-66
2022/11/09 06:26:02;;;;;;;6.75;3.05;;;15.10;79.50;;;;;;21162683;28;20096;-63
2022/11/09 06:36:04;;;;;;;;;;;15.00;79.60;;;;;;21163191;28;20399;-63
2022/11/09 06:46:05;;;;;;;5.10;2.47;;;14.90;79.70;;;;;;21162575;28;20030;-63
2022/11/09 06:56:08;;;;;;;9.82;3.08;;;15.00;79.60;;;;;;21161770;28;20075;-64
2022/11/09 07:06:11;;;;;;;10.13;5.40;;;14.70;80.50;;;;;;21161999;28;20552;-63
2022/11/09 07:16:16;;;;;;;5.07;2.72;;;14.70;80.70;;;;;;21176126;28;20138;-64
2022/11/09 07:26:18;;;;;;;5.85;3.03;;;14.70;81.20;;;;;;21175633;28;20044;-64
2022/11/09 07:36:19;;;;;;;6.32;3.55;;;14.70;81.30;;;;;;21175766;28;20125;-64
2022/11/09 07:46:21;;;;;;;6.28;3.72;;;14.70;81.50;;;;;;21156865;28;20462;-64
2022/11/09 07:56:25;;;;;;;6.70;2.97;;;14.70;82.00;;;;;;21174262;28;20047;-63
2022/11/09 08:06:27;;;;;;;8.98;4.03;;;14.70;82.00;;;;;;21172580;28;20054;-63
2022/11/09 08:16:29;;;;;;;10.85;4.85;;;14.70;82.30;;;;;;21173083;28;20418;-63
2022/11/09 08:26:34;;;;;;;8.25;3.83;;;14.70;81.80;;;;;;21173037;28;20044;-64
2022/11/09 08:36:36;;;;;;;10.27;4.75;;;14.70;81.30;;;;;;21171271;28;20059;-63
2022/11/09 08:46:37;;;;;;;11.05;5.47;;;14.80;81.30;;;;;;21170647;28;20043;-63
2022/11/09 08:56:39;;;;;;;8.63;5.10;;;15.00;81.20;;;;;;21168512;28;20059;-66
2022/11/09 09:06:41;;;;;;;14.18;5.47;;;15.20;80.90;;;;;;21168459;28;20051;-65
2022/11/09 09:16:44;;;;;;;5.97;2.30;;;15.20;81.30;;;;;;21150570;28;20053;-63
2022/11/09 09:26:46;;;;;;;6.22;2.60;;;15.20;78.40;;;;;;21168945;28;20051;-65
2022/11/09 09:36:47;;;;;;;7.60;2.45;;;15.00;78.50;;;;;;21166501;28;20048;-63
2022/11/09 09:47:12;;;;;;;4.70;2.25;;;15.10;78.70;;;;;;21166129;28;20047;-63
2022/11/09 09:57:21;;;;;;;7.03;2.33;;;15.10;78.90;;;;;;21165957;28;20070;-68
2022/11/09 10:07:26;;;;;;;5.68;2.50;;;15.10;79.50;;;;;;21164461;28;20051;-64
2022/11/09 10:17:41;;;;;;;11.90;4.53;;;15.00;80.30;;;;;;21164221;28;20180;-63
2022/11/09 10:28:01;;;;;;;;;;;15.00;80.20;;;;;;21162485;28;20078;-64
2022/11/09 10:38:03;;;;;;;6.95;3.35;;;14.80;80.50;;;;;;21160834;28;20013;-63
2022/11/09 10:48:08;;;;;;;;;;;15.80;77.30;;;;;;21172618;28;20059;-63
2022/11/09 10:58:31;;;;;;;7.63;3.55;;;15.70;75.80;;;;;;21177830;28;20014;-64
2022/11/09 11:08:38;;;;;;;7.97;3.00;;;15.40;78.30;;;;;;21177479;28;20079;-66
2022/11/09 11:18:45;;;;;;;9.20;4.65;;;15.20;78.60;;;;;;21176959;28;20048;-66
2022/11/09 11:28:54;;;;;;;7.72;3.42;;;15.20;78.90;;;;;;21175915;28;20047;-67
2022/11/09 11:39:17;;;;;;;8.20;3.78;;;15.40;78.90;;;;;;21175173;28;20086;-65
2022/11/09 11:49:38;;;;;;;8.60;3.03;;;15.60;78.40;;;;;;21174608;28;20138;-64
2022/11/09 11:59:53;;;;;;;7.63;3.13;;;15.60;77.50;;;;;;20749780;28;20242;-67
2022/11/09 12:10:03;;;;;;;11.07;8.77;;;16.00;75.50;;;;;;20749185;28;20081;-65
2022/11/09 12:20:36;;;;;;;8.45;3.05;;;16.10;73.90;;;;;;20748316;28;20406;-67
2022/11/09 12:31:04;;;;;;;13.18;5.70;;;16.30;72.30;;;;;;20593536;28;20099;-66
2022/11/09 12:41:15;;;;;;;7.63;4.28;;;16.60;71.30;;;;;;20828462;28;20112;-64
2022/11/09 12:51:18;;;;;;;3.60;2.08;;;16.80;69.20;;;;;;20827042;28;20053;-68
2022/11/09 13:01:32;;;;;;;5.80;2.53;;;17.10;68.50;;;;;;20913724;28;20096;-67
2022/11/09 13:11:51;;;;;;;4.45;2.60;;;17.00;68.10;;;;;;21166846;28;20187;-67
2022/11/09 13:21:52;;;;;;;8.82;4.40;;;16.60;67.40;;;;;;21168647;28;20400;-69
2022/11/09 13:32:02;;;;;;;5.03;1.92;;;16.60;67.70;;;;;;21175454;28;20088;-65
2022/11/09 13:42:26;;;;;;;4.25;2.35;;;16.60;68.50;;;;;;21173092;28;20057;-67
2022/11/09 13:52:57;;;;;;;7.63;2.67;;;16.70;67.80;;;;;;21167018;28;20480;-66
2022/11/09 14:03:01;;;;;;;5.38;3.22;;;16.80;68.30;;;;;;21165308;28;20043;-65
2022/11/09 14:13:15;;;;;;;5.75;2.22;;;16.70;68.90;;;;;;21164071;28;20465;-66
2022/11/09 14:23:21;;;;;;;5.55;3.15;;;16.70;68.30;;;;;;21162536;28;20491;-67
2022/11/09 14:33:33;;;;;;;9.75;2.97;;;16.70;68.10;;;;;;21163257;28;20199;-68
2022/11/09 14:43:42;;;;;;;6.93;2.60;;;16.90;67.70;;;;;;21162966;28;20048;-67
2022/11/09 14:53:44;;;;;;;4.93;2.50;;;16.90;67.70;;;;;;21161205;28;20081;-69
2022/11/09 15:04:18;;;;;;;6.78;3.22;;;16.80;68.00;;;;;;21162722;28;20044;-65
2022/11/09 15:14:30;;;;;;;6.10;2.20;;;16.80;67.70;;;;;;21161917;28;20058;-63
2022/11/09 15:24:46;;;;;;;5.22;2.03;;;16.90;67.70;;;;;;21160607;28;20422;-65
2022/11/09 15:34:52;;;;;;;5.25;2.10;;;16.70;67.70;;;;;;21170683;28;20408;-67
2022/11/09 15:44:56;;;;;;;4.95;1.90;;;16.60;68.60;;;;;;21175488;28;20051;-67
2022/11/09 15:54:58;;;;;;;6.00;2.38;;;16.50;68.80;;;;;;21173982;28;20051;-67
2022/11/09 16:04:59;;;;;;;7.72;3.40;;;16.30;70.10;;;;;;21172850;28;20498;-66
2022/11/09 16:15:01;;;;;;;8.05;3.13;;;16.20;70.20;;;;;;21172669;28;20083;-70
2022/11/09 16:25:03;;;;;;;10.27;5.22;;;16.10;70.40;;;;;;21171033;28;20076;-67
2022/11/09 16:35:05;;;;;;;11.70;3.85;;;16.00;71.60;;;;;;21171756;28;20139;-69
2022/11/09 16:45:11;;;;;;;9.15;3.22;;;15.80;73.20;;;;;;21170574;28;20044;-65
2022/11/09 16:55:12;;;;;;;9.30;3.63;;;15.80;74.00;;;;;;21169571;28;20168;-68
2022/11/09 17:05:13;;;;;;;7.78;3.00;;;15.70;74.30;;;;;;21168661;28;20498;-67
2022/11/09 17:15:15;;;;;;;8.48;3.40;;;15.60;74.30;;;;;;21168603;28;20444;-66
2022/11/09 17:25:17;;;;;;;7.97;3.03;;;15.60;73.90;;;;;;21168293;28;20130;-66
2022/11/09 17:35:19;;;;;;;5.07;2.50;;;15.40;74.20;;;;;;21166862;28;20156;-69
2022/11/09 17:45:23;;;;;;;6.07;2.70;;;15.40;73.60;;;;;;21147882;28;20495;-67
2022/11/09 17:55:24;;;;;;;9.88;5.80;;;15.30;73.60;;;;;;21164472;28;20078;-68
2022/11/09 18:05:25;;;;;;;8.10;4.85;;;15.20;74.10;;;;;;21164113;28;20083;-68
2022/11/09 18:15:28;;;;;;;9.88;4.95;;;15.00;74.90;;;;;;21163250;28;20058;-68
2022/11/09 18:25:30;;;;;;;9.23;4.78;;;15.00;75.20;;;;;;21163200;28;20051;-68
2022/11/09 18:35:31;;;;;;;9.15;4.75;;;14.90;75.40;;;;;;21162738;28;20479;-68
2022/11/09 18:45:33;;;;;;;13.07;5.75;;;14.90;75.40;;;;;;21161526;28;20458;-67
2022/11/09 18:55:35;;;;;;;11.15;7.03;;;14.70;76.00;;;;;;21161519;28;20051;-68
2022/11/09 19:05:39;;;;;;;10.43;6.93;;;14.70;76.10;;;;;;21166332;28;20392;-67
2022/11/09 19:15:44;;;;;;;11.95;8.07;;;14.70;75.80;;;;;;21177280;28;20055;-68
2022/11/09 19:25:45;;;;;;;12.73;7.40;;;14.60;76.20;;;;;;21176147;28;20075;-68
2022/11/09 19:35:52;;;;;;;25.08;14.15;;;14.40;76.50;;;;;;21175578;28;20047;-66
2022/11/09 19:45:53;;;;;;;16.98;9.45;;;14.40;76.30;;;;;;21174916;28;20503;-67
2022/11/09 19:55:58;;;;;;;17.88;12.63;;;14.30;76.10;;;;;;21173681;28;20070;-69
2022/11/09 20:06:00;;;;;;;18.52;11.60;;;14.20;76.80;;;;;;21173556;28;20461;-68
2022/11/09 20:16:07;;;;;;;20.98;10.57;;;14.20;77.00;;;;;;21172367;28;20483;-67
2022/11/09 20:26:11;;;;;;;13.55;8.23;;;14.10;77.40;;;;;;21171643;28;20105;-67
2022/11/09 20:36:13;;;;;;;9.50;6.25;;;13.90;77.50;;;;;;21172068;28;20105;-67
2022/11/09 20:46:17;;;;;;;12.18;7.65;;;13.70;78.10;;;;;;21170292;28;20044;-70
2022/11/09 20:56:20;;;;;;;13.27;7.18;;;13.60;78.50;;;;;;21170765;28;20063;-70
2022/11/09 21:06:23;;;;;;;13.43;7.85;;;13.60;78.30;;;;;;21168966;28;20047;-68
2022/11/09 21:16:24;;;;;;;27.80;15.45;;;13.50;78.10;;;;;;21168533;28;20050;-65
2022/11/09 21:36:46;;;;;;;11.32;6.82;;;13.20;78.00;;;;;;21167184;28;20059;-67
2022/11/09 21:46:48;;;;;;;9.68;5.72;;;13.10;77.40;;;;;;21166635;28;20061;-68
2022/11/09 21:56:50;;;;;;;7.28;5.43;;;12.90;77.20;;;;;;21145354;28;20070;-68
2022/11/09 22:06:52;;;;;;;10.50;7.53;;;12.80;77.50;;;;;;21145227;28;20484;-68
2022/11/09 22:16:53;;;;;;;9.82;6.30;;;12.70;77.40;;;;;;21163939;28;20480;-68
2022/11/09 22:26:54;;;;;;;14.00;8.23;;;12.50;78.00;;;;;;21164459;28;20051;-68
2022/11/09 22:36:56;;;;;;;19.30;11.40;;;12.50;78.00;;;;;;21163844;28;20059;-68
2022/11/09 22:46:57;;;;;;;16.23;8.73;;;12.40;78.30;;;;;;21142807;28;20385;-67
2022/11/09 22:56:58;;;;;;;19.25;10.93;;;12.40;78.10;;;;;;21162763;28;20400;-67
2022/11/09 23:07:00;;;;;;;12.75;8.75;;;12.30;78.10;;;;;;21161481;28;20048;-67
2022/11/09 23:18:52;;;;;;;14.57;7.93;;;12.20;77.90;;;;;;21161734;28;20263;-67
2022/11/09 23:27:23;;;;;;;14.65;7.97;;;12.20;77.60;;;;;;21161721;28;20120;-69
2022/11/09 23:37:24;;;;;;;10.93;5.93;;;12.00;76.90;;;;;;21160678;28;20091;-67
2022/11/09 23:47:25;;;;;;;27.77;10.45;;;11.80;76.20;;;;;;21160959;28;20467;-65
2022/11/09 23:57:27;;;;;;;13.70;7.72;;;11.60;76.70;;;;;;21172128;28;20083;-67
